createdAt,value
2023-05-22T00:00:37.411Z,42.9
2023-05-22T00:01:38.143Z,43
2023-05-22T00:02:39.317Z,43
2023-05-22T00:03:40.102Z,43
2023-05-22T00:04:41.160Z,43.2
2023-05-22T00:05:42.120Z,43.3
2023-05-22T00:06:43.143Z,43.1
2023-05-22T00:07:44.086Z,43.3
2023-05-22T00:08:45.068Z,43.7
2023-05-22T00:09:46.162Z,43.8
2023-05-22T00:10:47.139Z,43.8
2023-05-22T00:11:48.146Z,43.5
2023-05-22T00:12:49.070Z,43.7
2023-05-22T00:13:50.099Z,43.8
2023-05-22T00:14:51.157Z,43.8
2023-05-22T00:15:52.056Z,43.8
2023-05-22T00:16:53.100Z,43.8
2023-05-22T00:17:54.121Z,43.8
2023-05-22T00:18:55.153Z,43.8
2023-05-22T00:19:56.201Z,43.6
2023-05-22T00:20:57.156Z,43.7
2023-05-22T00:21:58.185Z,43.7
2023-05-22T00:22:59.203Z,43.4
2023-05-22T00:24:00.062Z,43.7
2023-05-22T00:25:01.142Z,44
2023-05-22T00:26:02.093Z,44.4
2023-05-22T00:27:03.207Z,44.5
2023-05-22T00:28:04.084Z,44.4
2023-05-22T00:29:05.057Z,44.3
2023-05-22T00:30:06.159Z,44.6
2023-05-22T00:31:07.137Z,44.7
2023-05-22T00:32:08.197Z,44.6
2023-05-22T00:33:09.154Z,44.8
2023-05-22T00:34:10.071Z,44.9
2023-05-22T00:35:11.142Z,45
2023-05-22T00:36:12.219Z,45
2023-05-22T00:37:13.155Z,45.1
2023-05-22T00:38:14.139Z,45
2023-05-22T00:39:15.048Z,44.9
2023-05-22T00:40:16.103Z,45
2023-05-22T00:41:17.178Z,45.3
2023-05-22T00:42:18.180Z,45.7
2023-05-22T00:43:19.125Z,45.7
2023-05-22T00:44:21.108Z,45.7
2023-05-22T00:45:22.100Z,45.7
2023-05-22T00:46:23.264Z,45.8
2023-05-22T00:47:24.219Z,45.9
2023-05-22T00:48:25.330Z,46
2023-05-22T00:49:26.119Z,46.2
2023-05-22T00:50:27.180Z,46.2
2023-05-22T00:51:28.119Z,46
2023-05-22T00:52:29.087Z,45.9
2023-05-22T00:53:30.111Z,46
2023-05-22T00:54:31.183Z,45.9
2023-05-22T00:55:32.092Z,45.7
2023-05-22T00:56:33.116Z,45.7
2023-05-22T00:57:34.239Z,45.5
2023-05-22T00:58:35.279Z,45.5
2023-05-22T00:59:36.170Z,45.3
2023-05-22T01:00:37.354Z,45.3
2023-05-22T01:01:38.196Z,45.3
2023-05-22T01:02:39.113Z,45.2
2023-05-22T01:03:40.218Z,45
2023-05-22T01:04:41.080Z,45
2023-05-22T01:05:42.129Z,44.9
2023-05-22T01:06:43.178Z,44.6
2023-05-22T01:07:44.145Z,44.5
2023-05-22T01:08:45.163Z,44.4
2023-05-22T01:09:46.122Z,44.4
2023-05-22T01:10:47.166Z,44.4
2023-05-22T01:11:48.177Z,44.3
2023-05-22T01:12:49.171Z,44.5
2023-05-22T01:13:50.118Z,44.3
2023-05-22T01:14:51.177Z,44.3
2023-05-22T01:15:52.225Z,44.5
2023-05-22T01:16:53.158Z,44.5
2023-05-22T01:17:54.177Z,44.3
2023-05-22T01:18:55.326Z,44.3
2023-05-22T01:19:56.178Z,44.3
2023-05-22T01:20:57.140Z,44.2
2023-05-22T01:21:58.137Z,44.2
2023-05-22T01:22:59.244Z,44.1
2023-05-22T01:24:00.155Z,44.2
2023-05-22T01:25:01.144Z,44.1
2023-05-22T01:26:02.180Z,44
2023-05-22T01:27:03.185Z,44.2
2023-05-22T01:28:04.260Z,44.6
2023-05-22T01:29:05.147Z,45.1
2023-05-22T01:30:06.359Z,45
2023-05-22T01:31:07.221Z,45.3
2023-05-22T01:32:08.182Z,45.3
2023-05-22T01:33:09.248Z,45.2
2023-05-22T01:35:57.335Z,45.2
2023-05-22T01:36:58.218Z,45.3
2023-05-22T01:37:59.160Z,44.9
2023-05-22T01:39:00.259Z,44.6
2023-05-22T01:40:01.160Z,44.4
2023-05-22T01:41:02.168Z,44.3
2023-05-22T01:42:03.225Z,44.1
2023-05-22T01:43:04.178Z,43.9
2023-05-22T01:44:05.179Z,44.1
2023-05-22T01:45:06.148Z,44
2023-05-22T01:46:07.262Z,44.1
2023-05-22T01:47:08.242Z,44
2023-05-22T01:48:09.261Z,44
2023-05-22T01:49:10.158Z,44.1
2023-05-22T01:50:11.180Z,44.1
2023-05-22T01:51:12.227Z,44.2
2023-05-22T01:52:13.180Z,44.3
2023-05-22T01:53:14.241Z,44.3
2023-05-22T01:54:15.269Z,44.5
2023-05-22T01:55:16.234Z,44.8
2023-05-22T01:56:17.144Z,44.7
2023-05-22T01:57:18.143Z,44.4
2023-05-22T01:58:19.213Z,44.9
2023-05-22T01:59:20.270Z,45.1
2023-05-22T02:00:24.021Z,45.1
2023-05-22T02:01:25.194Z,45
2023-05-22T02:02:26.299Z,45.1
2023-05-22T02:03:27.333Z,45.1
2023-05-22T02:04:28.200Z,45.2
2023-05-22T02:05:29.181Z,45.2
2023-05-22T02:06:30.248Z,45.3
2023-05-22T02:07:31.182Z,45.2
2023-05-22T02:08:32.202Z,45
2023-05-22T02:09:33.251Z,44.9
2023-05-22T02:10:34.169Z,45.2
2023-05-22T02:11:35.228Z,45.3
2023-05-22T02:12:36.203Z,45.3
2023-05-22T02:13:37.181Z,45.5
2023-05-22T02:14:38.183Z,45.7
2023-05-22T02:15:39.200Z,45.9
2023-05-22T02:16:40.201Z,45.8
2023-05-22T02:17:41.162Z,45.8
2023-05-22T02:18:42.144Z,45.7
2023-05-22T02:19:43.208Z,45.8
2023-05-22T02:20:44.246Z,45.7
2023-05-22T02:21:45.160Z,45.6
2023-05-22T02:22:46.272Z,45.6
2023-05-22T02:23:47.280Z,45.7
2023-05-22T02:24:48.213Z,45.8
2023-05-22T02:25:49.178Z,45.8
2023-05-22T02:26:50.200Z,45.7
2023-05-22T02:27:51.193Z,45.6
2023-05-22T02:28:52.182Z,45.6
2023-05-22T02:29:53.203Z,45.4
2023-05-22T02:30:54.210Z,45.3
2023-05-22T02:31:55.218Z,45.1
2023-05-22T02:32:56.265Z,45.1
2023-05-22T02:33:57.162Z,45.1
2023-05-22T02:34:58.162Z,45
2023-05-22T02:35:59.193Z,44.9
2023-05-22T02:37:00.268Z,45.1
2023-05-22T02:38:01.205Z,45.2
2023-05-22T02:39:02.241Z,44.5
2023-05-22T02:40:03.227Z,44.9
2023-05-22T02:41:04.206Z,45.3
2023-05-22T02:42:05.240Z,45.4
2023-05-22T02:43:06.244Z,45.3
2023-05-22T02:44:07.264Z,45.3
2023-05-22T02:45:08.217Z,45.3
2023-05-22T02:46:09.249Z,45.1
2023-05-22T02:47:10.179Z,45.1
2023-05-22T02:48:11.366Z,45.1
2023-05-22T02:49:12.281Z,45.1
2023-05-22T02:50:13.227Z,44.9
2023-05-22T02:51:14.363Z,45
2023-05-22T02:52:15.256Z,45.1
2023-05-22T02:53:16.159Z,45.1
2023-05-22T02:54:17.276Z,45.1
2023-05-22T02:55:18.324Z,45
2023-05-22T02:56:19.308Z,45
2023-05-22T02:57:20.218Z,45.1
2023-05-22T02:58:21.257Z,44.9
2023-05-22T02:59:22.477Z,45
2023-05-22T03:00:23.305Z,44.9
2023-05-22T03:01:24.285Z,45
2023-05-22T03:02:25.325Z,45.2
2023-05-22T03:03:26.595Z,45.3
2023-05-22T03:04:27.369Z,45.6
2023-05-22T03:05:28.204Z,46
2023-05-22T03:06:29.297Z,46.1
2023-05-22T03:07:30.279Z,45.8
2023-05-22T03:08:31.156Z,45.5
2023-05-22T03:09:32.200Z,45.3
2023-05-22T03:10:33.264Z,45.1
2023-05-22T03:11:34.255Z,45.1
2023-05-22T03:12:35.265Z,45.1
2023-05-22T03:13:36.178Z,45.1
2023-05-22T03:14:37.277Z,45.1
2023-05-22T03:15:38.249Z,45.2
2023-05-22T03:16:39.280Z,45.1
2023-05-22T03:17:40.246Z,45
2023-05-22T03:18:41.256Z,44.8
2023-05-22T03:19:42.180Z,44.6
2023-05-22T03:20:43.220Z,44.1
2023-05-22T03:21:44.191Z,44.4
2023-05-22T03:22:45.279Z,44.5
2023-05-22T03:23:46.218Z,44.5
2023-05-22T03:24:47.248Z,44.4
2023-05-22T03:25:48.414Z,44.5
2023-05-22T03:26:49.247Z,44.5
2023-05-22T03:27:50.219Z,44.4
2023-05-22T03:28:51.204Z,44.6
2023-05-22T03:29:52.231Z,44.6
2023-05-22T03:30:53.262Z,44.5
2023-05-22T03:31:54.290Z,44.6
2023-05-22T03:32:55.227Z,44.5
2023-05-22T03:33:56.158Z,44.5
2023-05-22T03:34:57.204Z,44.2
2023-05-22T03:35:58.263Z,44.3
2023-05-22T03:36:59.240Z,43.9
2023-05-22T03:38:00.182Z,44.6
2023-05-22T03:39:01.174Z,44.8
2023-05-22T03:40:02.282Z,45
2023-05-22T03:41:03.260Z,45.1
2023-05-22T03:42:04.258Z,45.1
2023-05-22T03:43:05.363Z,45.1
2023-05-22T03:44:06.223Z,45.1
2023-05-22T03:45:07.265Z,44.9
2023-05-22T03:46:08.248Z,44.9
2023-05-22T03:47:09.282Z,45
2023-05-22T03:48:10.289Z,44.8
2023-05-22T03:49:11.460Z,44.7
2023-05-22T03:50:12.361Z,44.6
2023-05-22T03:51:13.422Z,44.6
2023-05-22T03:52:14.424Z,44.5
2023-05-22T03:53:15.240Z,44.5
2023-05-22T03:54:16.248Z,44.6
2023-05-22T03:55:17.243Z,44.5
2023-05-22T03:56:18.285Z,44.4
2023-05-22T03:57:19.221Z,44.4
2023-05-22T03:58:20.201Z,44.4
2023-05-22T03:59:21.220Z,44.2
2023-05-22T04:00:22.370Z,44.1
2023-05-22T04:01:23.219Z,44.5
2023-05-22T04:02:24.319Z,44.9
2023-05-22T04:03:25.386Z,44.9
2023-05-22T04:04:26.224Z,45.1
2023-05-22T04:05:27.446Z,45.2
2023-05-22T04:06:28.220Z,45.1
2023-05-22T04:07:29.178Z,44.9
2023-05-22T04:08:30.261Z,44
2023-05-22T04:09:31.198Z,44.3
2023-05-22T04:10:32.259Z,44.2
2023-05-22T04:11:33.270Z,44.2
2023-05-22T04:12:34.244Z,44.1
2023-05-22T04:13:35.339Z,44.1
2023-05-22T04:14:36.297Z,43.9
2023-05-22T04:15:37.330Z,43.7
2023-05-22T04:16:38.346Z,43.6
2023-05-22T04:17:39.315Z,43.6
2023-05-22T04:18:40.258Z,44
2023-05-22T04:19:41.248Z,43.6
2023-05-22T04:20:43.038Z,43.6
2023-05-22T04:21:44.386Z,43.5
2023-05-22T04:22:45.325Z,43.3
2023-05-22T04:23:46.198Z,43.3
2023-05-22T04:24:47.426Z,42.9
2023-05-22T04:25:48.469Z,43
2023-05-22T04:26:49.399Z,43
2023-05-22T04:27:50.326Z,43
2023-05-22T04:28:51.278Z,43.1
2023-05-22T04:29:52.240Z,42.6
2023-05-22T04:30:53.335Z,43
2023-05-22T04:31:54.286Z,43.4
2023-05-22T04:32:55.309Z,43.4
2023-05-22T04:33:56.320Z,43.6
2023-05-22T04:34:57.280Z,43.4
2023-05-22T04:35:58.310Z,42.7
2023-05-22T04:36:59.279Z,42.5
2023-05-22T04:38:00.233Z,42.9
2023-05-22T04:39:01.282Z,42.9
2023-05-22T04:40:02.460Z,42.9
2023-05-22T04:41:03.538Z,42.5
2023-05-22T04:42:04.383Z,42.4
2023-05-22T04:43:05.362Z,42.6
2023-05-22T04:44:06.262Z,42.4
2023-05-22T04:45:07.362Z,42.2
2023-05-22T04:46:08.507Z,42.2
2023-05-22T04:47:09.476Z,42.2
2023-05-22T04:48:10.265Z,42.4
2023-05-22T04:49:11.288Z,41.9
2023-05-22T04:50:12.466Z,42.5
2023-05-22T04:51:13.299Z,42.6
2023-05-22T04:52:14.498Z,42.3
2023-05-22T04:53:15.319Z,41.9
2023-05-22T04:54:16.341Z,42.1
2023-05-22T04:55:17.383Z,42.2
2023-05-22T04:56:28.061Z,42.3
2023-05-22T04:57:19.470Z,42.2
2023-05-22T04:58:20.319Z,42
2023-05-22T04:59:21.240Z,41.6
2023-05-22T05:00:22.320Z,41.7
2023-05-22T05:01:23.341Z,41.4
2023-05-22T05:02:24.236Z,41.2
2023-05-22T05:03:25.306Z,41
2023-05-22T05:04:26.227Z,40.5
2023-05-22T05:05:27.421Z,40.2
2023-05-22T05:06:28.268Z,40.1
2023-05-22T05:07:29.308Z,40.4
2023-05-22T05:08:30.416Z,40.5
2023-05-22T05:09:31.373Z,40.3
2023-05-22T05:10:32.449Z,39.8
2023-05-22T05:11:33.456Z,40.3
2023-05-22T05:12:34.925Z,40.4
2023-05-22T05:13:36.498Z,40.3
2023-05-22T05:14:37.394Z,40.6
2023-05-22T05:15:38.323Z,40.9
2023-05-22T05:16:39.227Z,41.2
2023-05-22T05:17:40.264Z,41.2
2023-05-22T05:18:41.336Z,40.9
2023-05-22T05:19:42.346Z,40.8
2023-05-22T05:20:43.245Z,40.8
2023-05-22T05:21:44.240Z,40.7
2023-05-22T05:22:45.304Z,40.5
2023-05-22T05:23:46.355Z,40.4
2023-05-22T05:24:47.356Z,39.6
2023-05-22T05:25:48.383Z,39.1
2023-05-22T05:26:49.268Z,39.1
2023-05-22T05:27:50.341Z,39.2
2023-05-22T05:28:51.293Z,39.4
2023-05-22T05:29:52.254Z,39.3
2023-05-22T05:30:53.232Z,39.3
2023-05-22T05:31:54.256Z,38.9
2023-05-22T05:32:55.286Z,38.6
2023-05-22T05:33:56.297Z,38.7
2023-05-22T05:34:57.336Z,38.9
2023-05-22T05:35:58.218Z,38.8
2023-05-22T05:36:59.205Z,38.5
2023-05-22T05:38:00.263Z,38.2
2023-05-22T05:39:01.297Z,38.1
2023-05-22T05:40:02.326Z,38
2023-05-22T05:41:03.249Z,38.7
2023-05-22T05:42:04.283Z,39.5
2023-05-22T05:43:06.288Z,39.1
2023-05-22T05:44:06.341Z,38.5
2023-05-22T05:45:07.298Z,38.3
2023-05-22T05:46:08.256Z,38.3
2023-05-22T05:47:09.550Z,37.5
2023-05-22T05:48:10.361Z,37.4
2023-05-22T05:49:11.343Z,37.4
2023-05-22T05:50:12.345Z,37.1
2023-05-22T05:51:13.366Z,36.7
2023-05-22T05:52:14.409Z,36.7
2023-05-22T05:53:15.285Z,36.5
2023-05-22T05:54:16.281Z,36.4
2023-05-22T05:55:17.376Z,36.4
2023-05-22T05:56:18.400Z,36.3
2023-05-22T05:57:19.348Z,36.1
2023-05-22T05:58:20.308Z,36.2
2023-05-22T05:59:21.480Z,36.1
2023-05-22T06:00:22.315Z,36.1
2023-05-22T06:01:23.279Z,35.8
2023-05-22T06:02:24.337Z,35.9
2023-05-22T06:03:25.428Z,35.9
2023-05-22T06:04:26.349Z,35.6
2023-05-22T06:05:27.594Z,35.6
2023-05-22T06:06:28.564Z,35.7
2023-05-22T06:07:29.751Z,35.8
2023-05-22T06:08:31.403Z,35.9
2023-05-22T06:09:32.288Z,36
2023-05-22T06:10:33.348Z,35.8
2023-05-22T06:11:34.313Z,35.8
2023-05-22T06:12:35.341Z,35.7
2023-05-22T06:13:36.529Z,35.5
2023-05-22T06:14:37.359Z,34.9
2023-05-22T06:15:38.303Z,34.3
2023-05-22T06:16:39.522Z,34.1
2023-05-22T06:17:40.382Z,34
2023-05-22T06:18:41.401Z,34
2023-05-22T06:19:42.439Z,34.3
2023-05-22T06:20:43.444Z,34.6
2023-05-22T06:21:44.351Z,34.8
2023-05-22T06:22:45.278Z,34.8
2023-05-22T06:23:46.363Z,34.7
2023-05-22T06:24:47.282Z,34.5
2023-05-22T06:25:48.360Z,34.2
2023-05-22T06:26:49.453Z,34
2023-05-22T06:27:50.368Z,33.8
2023-05-22T06:28:51.378Z,33.5
2023-05-22T06:29:52.419Z,33.7
2023-05-22T06:30:53.489Z,33.5
2023-05-22T06:31:54.421Z,33.1
2023-05-22T06:32:55.493Z,32.4
2023-05-22T06:33:56.428Z,32.7
2023-05-22T06:34:57.284Z,32.9
2023-05-22T06:35:58.326Z,32.9
2023-05-22T06:36:59.350Z,33.3
2023-05-22T06:38:00.396Z,33.4
2023-05-22T06:39:01.332Z,33
2023-05-22T06:40:02.378Z,32.9
2023-05-22T06:41:03.328Z,33.2
2023-05-22T06:42:04.358Z,33.6
2023-05-22T06:43:05.411Z,34
2023-05-22T06:44:06.562Z,33.7
2023-05-22T06:45:07.528Z,33.6
2023-05-22T06:46:08.410Z,33.8
2023-05-22T06:47:09.390Z,33.3
2023-05-22T06:48:10.319Z,32.8
2023-05-22T06:49:11.318Z,32.7
2023-05-22T06:50:12.321Z,32.4
2023-05-22T06:51:13.422Z,32.3
2023-05-22T06:52:14.343Z,31.9
2023-05-22T06:53:15.359Z,31.4
2023-05-22T06:54:16.391Z,31.2
2023-05-22T06:55:17.299Z,31.2
2023-05-22T06:56:18.274Z,31.3
2023-05-22T06:57:19.379Z,31.5
2023-05-22T06:58:20.368Z,31.6
2023-05-22T06:59:21.565Z,31.5
2023-05-22T07:00:22.365Z,31.2
2023-05-22T07:01:23.526Z,30.8
2023-05-22T07:02:24.403Z,30.5
2023-05-22T07:03:25.341Z,30.2
2023-05-22T07:04:26.509Z,30.1
2023-05-22T07:05:27.495Z,30.4
2023-05-22T07:06:28.545Z,30.3
2023-05-22T07:07:29.520Z,30.1
2023-05-22T07:08:30.779Z,30.1
2023-05-22T07:09:31.395Z,30.3
2023-05-22T07:10:32.381Z,30.1
2023-05-22T07:11:33.337Z,30
2023-05-22T07:12:34.380Z,29.9
2023-05-22T07:13:35.474Z,30.2
2023-05-22T07:14:36.559Z,30.7
2023-05-22T07:15:37.482Z,30.5
2023-05-22T07:16:38.563Z,30.5
2023-05-22T07:17:39.524Z,30.9
2023-05-22T07:18:40.491Z,30.8
2023-05-22T07:19:41.467Z,30.5
2023-05-22T07:20:42.694Z,30.4
2023-05-22T07:21:43.480Z,30.2
2023-05-22T07:22:44.504Z,29.7
2023-05-22T07:23:45.420Z,29
2023-05-22T07:24:46.376Z,29.2
2023-05-22T07:25:47.459Z,30.3
2023-05-22T07:26:48.401Z,30.3
2023-05-22T07:27:49.526Z,30
2023-05-22T07:28:50.480Z,29.9
2023-05-22T07:29:51.478Z,29.5
2023-05-22T07:30:52.421Z,29.8
2023-05-22T07:31:53.430Z,29.4
2023-05-22T07:32:54.447Z,28.8
2023-05-22T07:33:55.386Z,29.3
2023-05-22T07:34:56.419Z,29.6
2023-05-22T07:35:57.360Z,28.6
2023-05-22T07:36:58.362Z,28.6
2023-05-22T07:37:59.407Z,28.4
2023-05-22T07:39:00.383Z,28.2
2023-05-22T07:40:01.398Z,28.1
2023-05-22T07:41:02.380Z,28.7
2023-05-22T07:42:03.439Z,28.7
2023-05-22T07:43:04.525Z,28.1
2023-05-22T07:44:05.492Z,28.2
2023-05-22T07:45:06.605Z,28.5
2023-05-22T07:46:07.386Z,27.8
2023-05-22T07:47:08.339Z,27.9
2023-05-22T07:48:09.418Z,27.9
2023-05-22T07:49:10.387Z,27.5
2023-05-22T07:50:11.448Z,28.2
2023-05-22T07:51:12.397Z,27.6
2023-05-22T07:52:13.509Z,27.7
2023-05-22T07:53:14.482Z,27.8
2023-05-22T07:54:15.418Z,27.9
2023-05-22T07:55:16.505Z,28.3
2023-05-22T07:56:17.503Z,28.5
2023-05-22T07:57:18.444Z,28.5
2023-05-22T07:58:19.417Z,28.4
2023-05-22T07:59:20.441Z,28.3
2023-05-22T08:00:21.766Z,28.5
2023-05-22T08:01:22.417Z,28.5
2023-05-22T08:02:23.446Z,28.4
2023-05-22T08:03:24.621Z,27.7
2023-05-22T08:04:25.585Z,27.2
2023-05-22T08:05:26.622Z,27.4
2023-05-22T08:06:27.527Z,26.8
2023-05-22T08:07:28.420Z,26.9
2023-05-22T08:08:31.263Z,26.9
2023-05-22T08:09:30.435Z,27
2023-05-22T08:10:41.794Z,27.5
2023-05-22T08:11:32.399Z,27.7
2023-05-22T08:12:33.411Z,26.6
2023-05-22T08:13:34.389Z,26.2
2023-05-22T08:14:35.428Z,26.5
2023-05-22T08:15:36.394Z,26.7
2023-05-22T08:16:37.426Z,27
2023-05-22T08:17:38.428Z,26.9
2023-05-22T08:18:39.359Z,27.2
2023-05-22T08:19:40.516Z,27.2
2023-05-22T08:20:41.601Z,27
2023-05-22T08:21:42.406Z,26.8
2023-05-22T08:22:43.376Z,27.1
2023-05-22T08:23:44.461Z,26.9
2023-05-22T08:24:45.425Z,26.7
2023-05-22T08:25:46.376Z,26.5
2023-05-22T08:26:47.437Z,26.5
2023-05-22T08:27:48.415Z,26.6
2023-05-22T08:28:49.372Z,26.5
2023-05-22T08:29:50.465Z,26.5
2023-05-22T08:30:51.595Z,26.3
2023-05-22T08:31:52.546Z,27.5
2023-05-22T08:32:53.479Z,26.7
2023-05-22T08:33:54.523Z,26.5
2023-05-22T08:34:55.459Z,26.2
2023-05-22T08:35:56.397Z,26.5
2023-05-22T08:36:57.423Z,27
2023-05-22T08:37:58.516Z,27.1
2023-05-22T08:38:59.596Z,26.9
2023-05-22T08:40:00.351Z,26.5
2023-05-22T08:41:01.463Z,26.3
2023-05-22T08:42:02.395Z,26.2
2023-05-22T08:43:03.428Z,26.1
2023-05-22T08:44:04.393Z,26.1
2023-05-22T08:45:05.542Z,25.9
2023-05-22T08:46:06.554Z,25.9
2023-05-22T08:47:07.508Z,25.7
2023-05-22T08:48:08.428Z,25.2
2023-05-22T08:49:09.447Z,25
2023-05-22T08:50:10.523Z,24.5
2023-05-22T08:51:11.403Z,24.2
2023-05-22T08:52:12.413Z,24.4
2023-05-22T08:53:13.512Z,24.4
2023-05-22T08:54:14.484Z,24.5
2023-05-22T08:55:15.472Z,24.8
2023-05-22T08:56:16.443Z,24.9
2023-05-22T08:57:17.397Z,25
2023-05-22T08:58:18.439Z,24.6
2023-05-22T08:59:19.467Z,25
2023-05-22T09:00:20.536Z,24.9
2023-05-22T09:01:21.562Z,24.9
2023-05-22T09:02:22.635Z,24.8
2023-05-22T09:03:23.512Z,25
2023-05-22T09:04:24.856Z,24
2023-05-22T09:05:26.572Z,24.3
2023-05-22T09:06:27.597Z,23.4
2023-05-22T09:07:28.425Z,22.6
2023-05-22T09:08:29.480Z,22.8
2023-05-22T09:09:30.494Z,22.7
2023-05-22T09:10:31.454Z,22.6
2023-05-22T09:11:32.504Z,22.2
2023-05-22T09:12:33.440Z,22.8
2023-05-22T09:13:34.377Z,23
2023-05-22T09:14:35.529Z,23.4
2023-05-22T09:15:36.461Z,23.1
2023-05-22T09:16:37.673Z,23.1
2023-05-22T09:17:38.568Z,23
2023-05-22T09:18:39.469Z,22.6
2023-05-22T09:19:40.629Z,22.2
2023-05-22T09:20:41.857Z,22.6
2023-05-22T09:21:43.291Z,22.3
2023-05-22T09:22:43.428Z,22.5
2023-05-22T09:23:44.521Z,22.5
2023-05-22T09:24:45.467Z,22.7
2023-05-22T09:25:46.534Z,22.5
2023-05-22T09:26:47.554Z,22
2023-05-22T09:27:48.493Z,21.2
2023-05-22T09:28:49.444Z,21.3
2023-05-22T09:29:50.532Z,20.9
2023-05-22T09:30:51.549Z,21.4
2023-05-22T09:31:52.815Z,21.2
2023-05-22T09:32:53.537Z,21.2
2023-05-22T09:33:54.496Z,20.4
2023-05-22T09:34:55.527Z,20.9
2023-05-22T09:35:56.463Z,21.6
2023-05-22T09:36:57.467Z,22
2023-05-22T09:37:58.464Z,21.2
2023-05-22T09:38:59.632Z,21.3
2023-05-22T09:40:00.476Z,20.7
2023-05-22T09:41:01.403Z,21.5
2023-05-22T09:42:02.441Z,20.7
2023-05-22T09:43:03.401Z,20.5
2023-05-22T09:44:04.479Z,21.6
2023-05-22T09:45:05.488Z,20.6
2023-05-22T09:46:06.547Z,20.5
2023-05-22T09:47:07.597Z,20.7
2023-05-22T09:48:08.541Z,20.7
2023-05-22T09:49:09.501Z,20
2023-05-22T09:50:10.552Z,19.2
2023-05-22T09:51:11.441Z,19.5
2023-05-22T09:52:12.612Z,19.8
2023-05-22T09:53:13.481Z,19.7
2023-05-22T09:54:14.434Z,18.7
2023-05-22T09:55:15.519Z,18.2
2023-05-22T09:56:21.405Z,17.8
2023-05-22T09:57:17.406Z,17.3
2023-05-22T09:58:18.459Z,18.2
2023-05-22T09:59:19.442Z,19.6
2023-05-22T10:00:20.521Z,20
2023-05-22T10:01:21.474Z,19.6
2023-05-22T10:02:22.579Z,19.2
2023-05-22T10:03:23.513Z,18.6
2023-05-22T10:04:24.688Z,18.6
2023-05-22T10:05:25.510Z,18.6
2023-05-22T10:06:26.491Z,18.9
2023-05-22T10:07:27.598Z,18.8
2023-05-22T10:08:28.479Z,19.5
2023-05-22T10:09:29.415Z,19.6
2023-05-22T10:10:30.642Z,19.7
2023-05-22T10:11:31.468Z,20
2023-05-22T10:12:32.523Z,20.3
2023-05-22T10:13:33.500Z,20.5
2023-05-22T10:14:34.483Z,20.2
2023-05-22T10:15:35.540Z,19.1
2023-05-22T10:16:36.595Z,18.4
2023-05-22T10:17:37.677Z,18.5
2023-05-22T10:18:38.560Z,19
2023-05-22T10:19:41.811Z,18.8
2023-05-22T10:20:40.755Z,18.2
2023-05-22T10:21:41.572Z,18.6
2023-05-22T10:22:42.571Z,19.1
2023-05-22T10:23:43.544Z,19.9
2023-05-22T10:24:44.563Z,20.3
2023-05-22T10:25:45.491Z,19.6
2023-05-22T10:26:46.706Z,19.4
2023-05-22T10:27:47.609Z,18.4
2023-05-22T10:28:48.506Z,18.2
2023-05-22T10:29:49.493Z,18.1
2023-05-22T10:30:50.500Z,18.4
2023-05-22T10:31:51.504Z,18.2
2023-05-22T10:32:52.689Z,18.4
2023-05-22T10:33:53.566Z,18.5
2023-05-22T10:34:54.569Z,19.2
2023-05-22T10:35:55.555Z,19.4
2023-05-22T10:37:03.133Z,19.2
2023-05-22T10:37:57.564Z,19.4
2023-05-22T10:38:58.460Z,19.8
2023-05-22T10:39:59.400Z,19.8
2023-05-22T10:41:00.567Z,20.1
2023-05-22T10:42:01.475Z,19.8
2023-05-22T10:43:02.562Z,20
2023-05-22T10:44:03.524Z,20.5
2023-05-22T10:45:04.769Z,20.3
2023-05-22T10:46:05.668Z,20.2
2023-05-22T10:47:06.564Z,19.8
2023-05-22T10:48:07.951Z,20
2023-05-22T10:49:08.508Z,19.8
2023-05-22T10:50:09.552Z,20
2023-05-22T10:51:10.551Z,19.7
2023-05-22T10:52:11.552Z,19.8
2023-05-22T10:53:12.550Z,19.5
2023-05-22T10:54:13.486Z,19.4
2023-05-22T10:55:14.522Z,19.1
2023-05-22T10:57:16.561Z,18.3
2023-05-22T10:58:17.460Z,18
2023-05-22T10:59:18.546Z,18.3
2023-05-22T11:00:19.569Z,18.8
2023-05-22T11:01:20.590Z,18.5
2023-05-22T11:02:21.693Z,18.3
2023-05-22T11:03:22.763Z,18.2
2023-05-22T11:04:23.595Z,18.5
2023-05-22T11:05:24.529Z,18.7
2023-05-22T11:06:25.501Z,18.7
2023-05-22T11:07:26.577Z,18.9
2023-05-22T11:08:27.615Z,18.4
2023-05-22T11:09:28.532Z,18.3
2023-05-22T11:10:29.503Z,18.3
2023-05-22T11:11:30.566Z,18.1
2023-05-22T11:12:31.454Z,18
2023-05-22T11:13:32.489Z,17.9
2023-05-22T11:14:33.526Z,18.3
2023-05-22T11:15:34.781Z,18.3
2023-05-22T11:16:35.638Z,17.7
2023-05-22T11:17:36.620Z,17.8
2023-05-22T11:18:37.769Z,18.1
2023-05-22T11:19:38.606Z,18.6
2023-05-22T11:20:39.729Z,18.4
2023-05-22T11:21:40.501Z,17.4
2023-05-22T11:22:41.497Z,16.7
2023-05-22T11:23:42.673Z,16.6
2023-05-22T11:24:58.648Z,16.8
2023-05-22T11:25:59.604Z,17.1
2023-05-22T11:27:00.526Z,17.1
2023-05-22T11:28:01.559Z,16.6
2023-05-22T11:29:02.586Z,17.2
2023-05-22T11:30:03.546Z,16.6
2023-05-22T11:31:04.519Z,16.8
2023-05-22T11:32:05.582Z,16.4
2023-05-22T11:33:06.976Z,16.1
2023-05-22T11:34:07.871Z,16.4
2023-05-22T11:35:08.721Z,15.9
2023-05-22T11:36:09.597Z,15.9
2023-05-22T11:37:10.565Z,16.3
2023-05-22T11:38:11.555Z,16.9
2023-05-22T11:39:12.567Z,17.4
2023-05-22T11:40:13.571Z,17
2023-05-22T11:41:14.712Z,16.4
2023-05-22T11:42:15.556Z,16.3
2023-05-22T11:43:16.584Z,16.2
2023-05-22T11:44:17.692Z,16.3
2023-05-22T11:45:18.968Z,16.7
2023-05-22T11:46:20.566Z,17.2
2023-05-22T11:47:21.538Z,16.9
2023-05-22T11:48:22.587Z,16.5
2023-05-22T11:49:23.572Z,16.5
2023-05-22T11:51:25.475Z,16.8
2023-05-22T11:52:26.607Z,16.9
2023-05-22T11:53:27.740Z,16.5
2023-05-22T11:54:28.529Z,16.1
2023-05-22T11:55:29.798Z,15.9
2023-05-22T11:56:30.711Z,15.7
2023-05-22T11:57:31.462Z,15.6
2023-05-22T11:58:32.503Z,15.9
2023-05-22T11:59:33.565Z,15.6
2023-05-22T12:00:34.692Z,15.7
2023-05-22T12:01:35.542Z,16
2023-05-22T12:02:36.659Z,16.2
2023-05-22T12:03:37.765Z,15.8
2023-05-22T12:04:38.587Z,14.9
2023-05-22T12:05:39.700Z,15.4
2023-05-22T12:06:40.660Z,16.1
2023-05-22T12:07:41.698Z,15.4
2023-05-22T12:08:42.623Z,15.1
2023-05-22T12:09:43.724Z,15
2023-05-22T12:10:44.615Z,15.1
2023-05-22T12:11:45.504Z,15.7
2023-05-22T12:12:46.599Z,15.8
2023-05-22T12:13:47.559Z,15.5
2023-05-22T12:14:48.519Z,15.9
2023-05-22T12:15:49.539Z,15.8
2023-05-22T12:16:50.789Z,16
2023-05-22T12:17:51.624Z,16.2
2023-05-22T12:18:52.697Z,16
2023-05-22T12:19:53.642Z,16.1
2023-05-22T12:20:54.735Z,15.3
2023-05-22T12:21:55.540Z,15.2
2023-05-22T12:22:56.577Z,15.3
2023-05-22T12:23:57.646Z,15.7
2023-05-22T12:24:58.711Z,16.5
2023-05-22T12:25:59.563Z,16.1
2023-05-22T12:27:00.457Z,15.6
2023-05-22T12:28:01.667Z,14.8
2023-05-22T12:29:02.506Z,14.4
2023-05-22T12:30:03.746Z,14.1
2023-05-22T12:31:04.578Z,13.9
2023-05-22T12:32:05.580Z,14
2023-05-22T12:33:06.669Z,14.1
2023-05-22T12:34:07.628Z,14.6
2023-05-22T12:35:08.798Z,14.7
2023-05-22T12:36:09.691Z,14.6
2023-05-22T12:37:10.685Z,14.5
2023-05-22T12:38:11.596Z,14.9
2023-05-22T12:39:12.521Z,15.2
2023-05-22T12:40:13.614Z,15
2023-05-22T12:41:14.814Z,14.6
2023-05-22T12:42:15.726Z,14.2
2023-05-22T12:43:17.048Z,14.1
2023-05-22T12:44:18.576Z,14.2
2023-05-22T12:45:19.816Z,14.1
2023-05-22T12:46:20.577Z,14.3
2023-05-22T12:47:21.617Z,14.4
2023-05-22T12:48:22.660Z,14.5
2023-05-22T12:49:23.758Z,14.9
2023-05-22T12:50:24.789Z,15.4
2023-05-22T12:51:25.581Z,14.9
2023-05-22T12:52:26.565Z,14.8
2023-05-22T12:53:27.665Z,14.9
2023-05-22T12:54:28.622Z,15
2023-05-22T12:55:29.597Z,15.5
2023-05-22T12:56:30.570Z,15.1
2023-05-22T12:57:31.518Z,14.2
2023-05-22T12:58:32.760Z,13.6
2023-05-22T12:59:33.621Z,13.8
2023-05-22T13:00:34.637Z,13.8
2023-05-22T13:01:36.030Z,14.2
2023-05-22T13:02:36.777Z,14.3
2023-05-22T13:03:37.620Z,14.4
2023-05-22T13:04:38.653Z,14.4
2023-05-22T13:05:39.946Z,14.2
2023-05-22T13:06:40.519Z,13.8
2023-05-22T13:07:41.567Z,13.8
2023-05-22T13:08:42.581Z,14.2
2023-05-22T13:09:43.545Z,14.1
2023-05-22T13:10:44.686Z,14.5
2023-05-22T13:11:45.822Z,14
2023-05-22T13:12:46.759Z,13.2
2023-05-22T13:13:47.701Z,12.9
2023-05-22T13:14:48.559Z,13.1
2023-05-22T13:15:49.544Z,13
2023-05-22T13:16:50.560Z,12.8
2023-05-22T13:17:51.697Z,12.4
2023-05-22T13:18:52.596Z,12.3
2023-05-22T13:19:53.623Z,12.2
2023-05-22T13:20:57.803Z,11.8
2023-05-22T13:21:58.504Z,12
2023-05-22T13:22:59.619Z,12.3
2023-05-22T13:24:00.734Z,12.6
2023-05-22T13:25:01.581Z,13.2
2023-05-22T13:26:02.639Z,12.4
2023-05-22T13:27:03.863Z,12.9
2023-05-22T13:28:04.600Z,12.7
2023-05-22T13:29:05.576Z,12.4
2023-05-22T13:30:06.736Z,12.4
2023-05-22T13:31:07.695Z,12.6
2023-05-22T13:32:08.557Z,13.2
2023-05-22T13:33:09.674Z,13.1
2023-05-22T13:34:10.722Z,13.4
2023-05-22T13:35:11.596Z,13.9
2023-05-22T13:36:12.727Z,13.5
2023-05-22T13:37:13.578Z,13.1
2023-05-22T13:38:14.639Z,13.4
2023-05-22T13:39:15.552Z,13.8
2023-05-22T13:40:16.631Z,13.6
2023-05-22T13:41:17.741Z,13.3